sensor_id;sensor_type;location;lat;lon;timestamp;temperature;humidity
16966;DHT22;8599;47.852;12.070;2023-04-05T00:02:13;0.50;99.90
16966;DHT22;8599;47.852;12.070;2023-04-05T00:04:44;0.50;99.90
16966;DHT22;8599;47.852;12.070;2023-04-05T00:07:16;0.30;99.90
16966;DHT22;8599;47.852;12.070;2023-04-05T00:09:46;0.20;99.90
16966;DHT22;8599;47.852;12.070;2023-04-05T00:12:13;0.00;99.90
16966;DHT22;8599;47.852;12.070;2023-04-05T00:14:40;0.00;99.90
16966;DHT22;8599;47.852;12.070;2023-04-05T00:17:07;0.00;99.90
16966;DHT22;8599;47.852;12.070;2023-04-05T00:19:34;0.00;99.90
16966;DHT22;8599;47.852;12.070;2023-04-05T00:22:04;0.00;99.90
16966;DHT22;8599;47.852;12.070;2023-04-05T00:24:31;0.00;99.90
16966;DHT22;8599;47.852;12.070;2023-04-05T00:26:58;0.10;99.90
16966;DHT22;8599;47.852;12.070;2023-04-05T00:29:25;0.20;99.90
16966;DHT22;8599;47.852;12.070;2023-04-05T00:31:52;0.20;99.90
16966;DHT22;8599;47.852;12.070;2023-04-05T00:37:42;0.30;99.90
16966;DHT22;8599;47.852;12.070;2023-04-05T00:40:09;0.40;99.90
16966;DHT22;8599;47.852;12.070;2023-04-05T00:42:36;0.40;99.90
16966;DHT22;8599;47.852;12.070;2023-04-05T00:45:04;0.40;99.90
16966;DHT22;8599;47.852;12.070;2023-04-05T00:47:30;0.30;99.90
16966;DHT22;8599;47.852;12.070;2023-04-05T00:49:57;0.30;99.90
16966;DHT22;8599;47.852;12.070;2023-04-05T00:52:24;0.30;99.90
16966;DHT22;8599;47.852;12.070;2023-04-05T00:54:53;0.30;99.90
16966;DHT22;8599;47.852;12.070;2023-04-05T00:57:21;0.40;99.90
16966;DHT22;8599;47.852;12.070;2023-04-05T00:59:49;0.40;99.90
16966;DHT22;8599;47.852;12.070;2023-04-05T01:02:18;0.40;99.90
16966;DHT22;8599;47.852;12.070;2023-04-05T01:04:58;0.10;99.90
16966;DHT22;8599;47.852;12.070;2023-04-05T01:07:32;0.10;99.90
16966;DHT22;8599;47.852;12.070;2023-04-05T01:10:04;0.10;99.90
16966;DHT22;8599;47.852;12.070;2023-04-05T01:12:32;0.00;99.90
16966;DHT22;8599;47.852;12.070;2023-04-05T01:15:01;0.00;99.90
16966;DHT22;8599;47.852;12.070;2023-04-05T01:17:29;0.00;99.90
16966;DHT22;8599;47.852;12.070;2023-04-05T01:20:02;0.00;99.90
16966;DHT22;8599;47.852;12.070;2023-04-05T01:23:04;0.00;99.90
16966;DHT22;8599;47.852;12.070;2023-04-05T01:26:02;0.00;99.90
16966;DHT22;8599;47.852;12.070;2023-04-05T01:29:03;0.00;99.90
16966;DHT22;8599;47.852;12.070;2023-04-05T01:31:41;0.00;99.90
16966;DHT22;8599;47.852;12.070;2023-04-05T01:34:21;0.00;99.90
16966;DHT22;8599;47.852;12.070;2023-04-05T01:36:54;0.00;99.90
16966;DHT22;8599;47.852;12.070;2023-04-05T01:39:23;-0.20;99.90
16966;DHT22;8599;47.852;12.070;2023-04-05T01:41:50;-0.20;99.90
16966;DHT22;8599;47.852;12.070;2023-04-05T01:44:17;-0.20;99.90
16966;DHT22;8599;47.852;12.070;2023-04-05T01:46:45;-0.10;99.90
16966;DHT22;8599;47.852;12.070;2023-04-05T01:49:12;0.00;99.90
16966;DHT22;8599;47.852;12.070;2023-04-05T01:51:39;0.00;99.90
16966;DHT22;8599;47.852;12.070;2023-04-05T01:54:07;-0.20;99.90
16966;DHT22;8599;47.852;12.070;2023-04-05T01:56:34;-0.30;99.90
16966;DHT22;8599;47.852;12.070;2023-04-05T01:59:00;-0.40;99.90
16966;DHT22;8599;47.852;12.070;2023-04-05T02:01:27;-0.40;99.90
16966;DHT22;8599;47.852;12.070;2023-04-05T02:03:56;-0.60;99.90
16966;DHT22;8599;47.852;12.070;2023-04-05T02:06:22;-0.70;99.90
16966;DHT22;8599;47.852;12.070;2023-04-05T02:08:49;-0.70;99.90
16966;DHT22;8599;47.852;12.070;2023-04-05T02:11:16;-0.80;99.90
16966;DHT22;8599;47.852;12.070;2023-04-05T02:13:43;-0.80;99.90
16966;DHT22;8599;47.852;12.070;2023-04-05T02:16:09;-0.70;99.90
16966;DHT22;8599;47.852;12.070;2023-04-05T02:18:36;-0.70;99.90
16966;DHT22;8599;47.852;12.070;2023-04-05T02:21:06;-0.50;99.90
16966;DHT22;8599;47.852;12.070;2023-04-05T02:23:36;-0.50;99.90
16966;DHT22;8599;47.852;12.070;2023-04-05T02:26:03;-0.50;99.90
16966;DHT22;8599;47.852;12.070;2023-04-05T02:28:30;-0.50;99.90
16966;DHT22;8599;47.852;12.070;2023-04-05T02:30:56;-0.50;99.90
16966;DHT22;8599;47.852;12.070;2023-04-05T02:33:23;-0.60;99.90
16966;DHT22;8599;47.852;12.070;2023-04-05T02:35:51;-0.60;99.90
16966;DHT22;8599;47.852;12.070;2023-04-05T02:38:19;-0.50;99.90
16966;DHT22;8599;47.852;12.070;2023-04-05T02:40:47;-0.60;99.90
16966;DHT22;8599;47.852;12.070;2023-04-05T02:43:14;-0.70;99.90
16966;DHT22;8599;47.852;12.070;2023-04-05T02:45:42;-0.70;99.90
16966;DHT22;8599;47.852;12.070;2023-04-05T02:48:08;-0.70;99.90
16966;DHT22;8599;47.852;12.070;2023-04-05T02:50:35;-0.70;99.90
16966;DHT22;8599;47.852;12.070;2023-04-05T02:53:02;-0.70;99.90
16966;DHT22;8599;47.852;12.070;2023-04-05T02:55:30;-0.60;99.90
16966;DHT22;8599;47.852;12.070;2023-04-05T02:57:58;-0.50;99.90
16966;DHT22;8599;47.852;12.070;2023-04-05T03:00:26;-0.50;99.90
16966;DHT22;8599;47.852;12.070;2023-04-05T03:02:53;-0.50;99.90
16966;DHT22;8599;47.852;12.070;2023-04-05T03:05:20;-0.40;99.90
16966;DHT22;8599;47.852;12.070;2023-04-05T03:07:47;-0.40;99.90
16966;DHT22;8599;47.852;12.070;2023-04-05T03:10:15;-0.40;99.90
16966;DHT22;8599;47.852;12.070;2023-04-05T03:12:45;-0.50;99.90
16966;DHT22;8599;47.852;12.070;2023-04-05T03:15:12;-0.60;99.90
16966;DHT22;8599;47.852;12.070;2023-04-05T03:17:39;-0.70;99.90
16966;DHT22;8599;47.852;12.070;2023-04-05T03:20:10;-1.00;99.90
16966;DHT22;8599;47.852;12.070;2023-04-05T03:22:37;-1.10;99.90
16966;DHT22;8599;47.852;12.070;2023-04-05T03:25:04;-1.20;99.90
16966;DHT22;8599;47.852;12.070;2023-04-05T03:27:31;-1.20;99.90
16966;DHT22;8599;47.852;12.070;2023-04-05T03:30:00;-1.10;99.90
16966;DHT22;8599;47.852;12.070;2023-04-05T03:32:27;-1.10;99.90
16966;DHT22;8599;47.852;12.070;2023-04-05T03:34:53;-1.10;99.90
16966;DHT22;8599;47.852;12.070;2023-04-05T03:37:20;-1.10;99.90
16966;DHT22;8599;47.852;12.070;2023-04-05T03:39:47;-1.30;99.90
16966;DHT22;8599;47.852;12.070;2023-04-05T03:42:14;-1.30;99.90
16966;DHT22;8599;47.852;12.070;2023-04-05T03:44:42;-1.40;99.90
16966;DHT22;8599;47.852;12.070;2023-04-05T03:47:10;-1.30;99.90
16966;DHT22;8599;47.852;12.070;2023-04-05T03:49:37;-1.20;99.90
16966;DHT22;8599;47.852;12.070;2023-04-05T03:52:04;-1.10;99.90
16966;DHT22;8599;47.852;12.070;2023-04-05T03:54:31;-1.10;99.90
16966;DHT22;8599;47.852;12.070;2023-04-05T03:56:57;-1.10;99.90
16966;DHT22;8599;47.852;12.070;2023-04-05T03:59:25;-1.40;99.90
16966;DHT22;8599;47.852;12.070;2023-04-05T04:01:52;-1.80;99.90
16966;DHT22;8599;47.852;12.070;2023-04-05T04:04:20;-2.00;99.90
16966;DHT22;8599;47.852;12.070;2023-04-05T04:06:47;-2.00;99.90
16966;DHT22;8599;47.852;12.070;2023-04-05T04:09:14;-1.90;99.90
16966;DHT22;8599;47.852;12.070;2023-04-05T04:11:40;-1.80;99.90
16966;DHT22;8599;47.852;12.070;2023-04-05T04:14:07;-1.70;99.90
16966;DHT22;8599;47.852;12.070;2023-04-05T04:16:34;-1.60;99.90
16966;DHT22;8599;47.852;12.070;2023-04-05T04:19:01;-1.50;99.90
16966;DHT22;8599;47.852;12.070;2023-04-05T04:21:29;-1.50;99.90
16966;DHT22;8599;47.852;12.070;2023-04-05T04:23:57;-1.50;99.90
16966;DHT22;8599;47.852;12.070;2023-04-05T04:26:25;-1.50;99.90
16966;DHT22;8599;47.852;12.070;2023-04-05T04:28:53;-1.60;99.90
16966;DHT22;8599;47.852;12.070;2023-04-05T04:31:20;-1.70;99.90
16966;DHT22;8599;47.852;12.070;2023-04-05T04:33:48;-1.90;99.90
16966;DHT22;8599;47.852;12.070;2023-04-05T04:36:16;-2.10;99.90
16966;DHT22;8599;47.852;12.070;2023-04-05T04:38:53;-2.20;99.90
16966;DHT22;8599;47.852;12.070;2023-04-05T04:41:20;-2.20;99.90
16966;DHT22;8599;47.852;12.070;2023-04-05T04:43:47;-2.20;99.90
16966;DHT22;8599;47.852;12.070;2023-04-05T04:46:13;-2.00;99.90
16966;DHT22;8599;47.852;12.070;2023-04-05T04:48:41;-1.90;99.90
16966;DHT22;8599;47.852;12.070;2023-04-05T04:51:07;-2.00;99.90
16966;DHT22;8599;47.852;12.070;2023-04-05T04:53:35;-2.00;99.90
16966;DHT22;8599;47.852;12.070;2023-04-05T04:56:06;-2.00;99.90
16966;DHT22;8599;47.852;12.070;2023-04-05T04:58:33;-1.90;99.90
16966;DHT22;8599;47.852;12.070;2023-04-05T05:01:00;-1.80;99.90
16966;DHT22;8599;47.852;12.070;2023-04-05T05:03:33;-1.80;99.90
16966;DHT22;8599;47.852;12.070;2023-04-05T05:06:01;-1.70;99.90
16966;DHT22;8599;47.852;12.070;2023-04-05T05:08:29;-1.80;99.90
16966;DHT22;8599;47.852;12.070;2023-04-05T05:10:55;-1.90;99.90
16966;DHT22;8599;47.852;12.070;2023-04-05T05:13:24;-2.00;99.90
16966;DHT22;8599;47.852;12.070;2023-04-05T05:15:51;-2.10;99.90
16966;DHT22;8599;47.852;12.070;2023-04-05T05:18:18;-2.10;99.90
16966;DHT22;8599;47.852;12.070;2023-04-05T05:20:44;-2.10;99.90
16966;DHT22;8599;47.852;12.070;2023-04-05T05:23:15;-2.00;99.90
16966;DHT22;8599;47.852;12.070;2023-04-05T05:25:42;-1.80;99.90
16966;DHT22;8599;47.852;12.070;2023-04-05T05:28:09;-1.70;99.90
16966;DHT22;8599;47.852;12.070;2023-04-05T05:30:37;-1.50;99.90
16966;DHT22;8599;47.852;12.070;2023-04-05T05:33:04;-1.40;99.90
16966;DHT22;8599;47.852;12.070;2023-04-05T05:35:30;-1.30;99.90
16966;DHT22;8599;47.852;12.070;2023-04-05T05:37:57;-1.20;99.90
16966;DHT22;8599;47.852;12.070;2023-04-05T05:40:24;-1.20;99.90
16966;DHT22;8599;47.852;12.070;2023-04-05T05:42:51;-1.10;99.90
16966;DHT22;8599;47.852;12.070;2023-04-05T05:45:18;-1.00;99.90
16966;DHT22;8599;47.852;12.070;2023-04-05T05:47:46;-0.90;99.90
16966;DHT22;8599;47.852;12.070;2023-04-05T05:50:13;-0.90;99.90
16966;DHT22;8599;47.852;12.070;2023-04-05T05:52:41;-0.90;99.90
16966;DHT22;8599;47.852;12.070;2023-04-05T05:55:08;-1.00;99.90
16966;DHT22;8599;47.852;12.070;2023-04-05T05:57:35;-1.00;99.90
16966;DHT22;8599;47.852;12.070;2023-04-05T06:00:04;-0.90;99.90
16966;DHT22;8599;47.852;12.070;2023-04-05T06:02:33;-0.90;99.90
16966;DHT22;8599;47.852;12.070;2023-04-05T06:05:02;-0.80;99.90
16966;DHT22;8599;47.852;12.070;2023-04-05T06:07:29;-0.70;99.90
16966;DHT22;8599;47.852;12.070;2023-04-05T06:09:56;-0.60;99.90
16966;DHT22;8599;47.852;12.070;2023-04-05T06:12:22;-0.60;99.90
16966;DHT22;8599;47.852;12.070;2023-04-05T06:14:49;-0.60;99.90
16966;DHT22;8599;47.852;12.070;2023-04-05T06:17:16;-0.40;99.90
16966;DHT22;8599;47.852;12.070;2023-04-05T06:19:43;-0.30;99.90
16966;DHT22;8599;47.852;12.070;2023-04-05T06:22:11;-0.10;99.90
16966;DHT22;8599;47.852;12.070;2023-04-05T06:24:38;-0.10;99.90
16966;DHT22;8599;47.852;12.070;2023-04-05T06:27:05;0.00;99.90
16966;DHT22;8599;47.852;12.070;2023-04-05T06:29:31;0.00;99.90
16966;DHT22;8599;47.852;12.070;2023-04-05T06:31:58;0.20;99.90
16966;DHT22;8599;47.852;12.070;2023-04-05T06:34:25;0.20;99.90
16966;DHT22;8599;47.852;12.070;2023-04-05T06:36:52;0.30;99.90
16966;DHT22;8599;47.852;12.070;2023-04-05T06:39:22;0.40;99.90
16966;DHT22;8599;47.852;12.070;2023-04-05T06:41:49;0.40;99.90
16966;DHT22;8599;47.852;12.070;2023-04-05T06:44:16;0.40;99.90
16966;DHT22;8599;47.852;12.070;2023-04-05T06:46:42;0.50;99.90
16966;DHT22;8599;47.852;12.070;2023-04-05T06:49:09;0.60;99.90
16966;DHT22;8599;47.852;12.070;2023-04-05T06:51:36;0.60;99.90
16966;DHT22;8599;47.852;12.070;2023-04-05T06:54:03;0.70;99.90
16966;DHT22;8599;47.852;12.070;2023-04-05T06:56:31;0.70;99.90
16966;DHT22;8599;47.852;12.070;2023-04-05T06:58:58;0.80;99.90
16966;DHT22;8599;47.852;12.070;2023-04-05T07:01:26;0.80;99.90
16966;DHT22;8599;47.852;12.070;2023-04-05T07:03:53;0.80;99.90
16966;DHT22;8599;47.852;12.070;2023-04-05T07:06:20;0.90;99.90
16966;DHT22;8599;47.852;12.070;2023-04-05T07:08:48;1.00;99.90
16966;DHT22;8599;47.852;12.070;2023-04-05T07:11:15;1.00;99.90
16966;DHT22;8599;47.852;12.070;2023-04-05T07:13:43;1.10;99.90
16966;DHT22;8599;47.852;12.070;2023-04-05T07:16:10;1.10;99.90
16966;DHT22;8599;47.852;12.070;2023-04-05T07:18:37;1.10;99.90
16966;DHT22;8599;47.852;12.070;2023-04-05T07:21:04;1.10;99.90
16966;DHT22;8599;47.852;12.070;2023-04-05T07:23:30;1.30;99.90
16966;DHT22;8599;47.852;12.070;2023-04-05T07:26:00;1.40;99.90
16966;DHT22;8599;47.852;12.070;2023-04-05T07:28:29;1.40;99.90
16966;DHT22;8599;47.852;12.070;2023-04-05T07:30:57;1.50;99.90
16966;DHT22;8599;47.852;12.070;2023-04-05T07:33:24;1.50;99.90
16966;DHT22;8599;47.852;12.070;2023-04-05T07:35:51;1.50;99.90
16966;DHT22;8599;47.852;12.070;2023-04-05T07:38:18;1.60;99.90
16966;DHT22;8599;47.852;12.070;2023-04-05T07:40:47;1.70;99.90
16966;DHT22;8599;47.852;12.070;2023-04-05T07:43:14;1.70;99.90
16966;DHT22;8599;47.852;12.070;2023-04-05T07:45:41;1.70;99.90
16966;DHT22;8599;47.852;12.070;2023-04-05T07:48:09;1.80;99.90
16966;DHT22;8599;47.852;12.070;2023-04-05T07:50:36;1.70;99.90
16966;DHT22;8599;47.852;12.070;2023-04-05T07:53:04;1.70;99.90
16966;DHT22;8599;47.852;12.070;2023-04-05T07:55:32;1.70;99.90
16966;DHT22;8599;47.852;12.070;2023-04-05T07:57:59;1.80;99.90
16966;DHT22;8599;47.852;12.070;2023-04-05T08:00:26;1.80;99.90
16966;DHT22;8599;47.852;12.070;2023-04-05T08:02:53;1.80;99.90
16966;DHT22;8599;47.852;12.070;2023-04-05T08:05:21;1.90;99.90
16966;DHT22;8599;47.852;12.070;2023-04-05T08:07:48;2.00;99.90
16966;DHT22;8599;47.852;12.070;2023-04-05T08:10:14;2.10;99.90
16966;DHT22;8599;47.852;12.070;2023-04-05T08:12:41;2.10;99.90
16966;DHT22;8599;47.852;12.070;2023-04-05T08:15:09;2.20;99.90
16966;DHT22;8599;47.852;12.070;2023-04-05T08:17:36;2.40;99.90
16966;DHT22;8599;47.852;12.070;2023-04-05T08:20:03;2.50;99.90
16966;DHT22;8599;47.852;12.070;2023-04-05T08:22:31;2.50;99.90
16966;DHT22;8599;47.852;12.070;2023-04-05T08:24:58;2.50;99.90
16966;DHT22;8599;47.852;12.070;2023-04-05T08:27:25;2.50;99.90
16966;DHT22;8599;47.852;12.070;2023-04-05T08:29:52;2.50;99.90
16966;DHT22;8599;47.852;12.070;2023-04-05T08:32:19;2.60;99.90
16966;DHT22;8599;47.852;12.070;2023-04-05T08:34:46;2.80;99.90
16966;DHT22;8599;47.852;12.070;2023-04-05T08:37:12;2.90;99.90
16966;DHT22;8599;47.852;12.070;2023-04-05T08:39:41;2.90;99.90
16966;DHT22;8599;47.852;12.070;2023-04-05T08:42:12;2.80;99.90
16966;DHT22;8599;47.852;12.070;2023-04-05T08:44:43;2.80;99.90
16966;DHT22;8599;47.852;12.070;2023-04-05T08:47:12;2.80;99.90
16966;DHT22;8599;47.852;12.070;2023-04-05T08:49:42;3.10;99.90
16966;DHT22;8599;47.852;12.070;2023-04-05T08:52:09;3.20;99.90
16966;DHT22;8599;47.852;12.070;2023-04-05T08:54:37;3.30;99.90
16966;DHT22;8599;47.852;12.070;2023-04-05T08:57:06;3.30;99.90
16966;DHT22;8599;47.852;12.070;2023-04-05T08:59:36;3.50;99.90
16966;DHT22;8599;47.852;12.070;2023-04-05T09:02:07;3.60;99.90
16966;DHT22;8599;47.852;12.070;2023-04-05T09:04:39;3.60;99.90
16966;DHT22;8599;47.852;12.070;2023-04-05T09:07:10;3.50;99.90
16966;DHT22;8599;47.852;12.070;2023-04-05T09:09:38;3.60;99.90
16966;DHT22;8599;47.852;12.070;2023-04-05T09:12:09;3.80;99.90
16966;DHT22;8599;47.852;12.070;2023-04-05T09:14:37;3.90;99.90
16966;DHT22;8599;47.852;12.070;2023-04-05T09:17:05;4.00;99.90
16966;DHT22;8599;47.852;12.070;2023-04-05T09:19:32;4.00;99.90
16966;DHT22;8599;47.852;12.070;2023-04-05T09:22:03;4.10;99.90
16966;DHT22;8599;47.852;12.070;2023-04-05T09:24:32;4.10;99.90
16966;DHT22;8599;47.852;12.070;2023-04-05T09:27:03;4.10;99.90
16966;DHT22;8599;47.852;12.070;2023-04-05T09:29:32;4.20;99.90
16966;DHT22;8599;47.852;12.070;2023-04-05T09:32:00;4.20;99.90
16966;DHT22;8599;47.852;12.070;2023-04-05T09:34:29;4.20;99.90
16966;DHT22;8599;47.852;12.070;2023-04-05T09:36:57;4.30;99.90
16966;DHT22;8599;47.852;12.070;2023-04-05T09:39:27;4.30;99.90
16966;DHT22;8599;47.852;12.070;2023-04-05T09:42:08;4.50;99.90
16966;DHT22;8599;47.852;12.070;2023-04-05T09:44:50;4.60;99.90
16966;DHT22;8599;47.852;12.070;2023-04-05T09:47:18;4.80;99.90
16966;DHT22;8599;47.852;12.070;2023-04-05T09:49:46;4.90;99.90
16966;DHT22;8599;47.852;12.070;2023-04-05T09:52:23;4.90;99.90
16966;DHT22;8599;47.852;12.070;2023-04-05T09:54:52;4.90;99.90
16966;DHT22;8599;47.852;12.070;2023-04-05T09:57:20;4.90;99.90
16966;DHT22;8599;47.852;12.070;2023-04-05T09:59:47;4.90;99.90
16966;DHT22;8599;47.852;12.070;2023-04-05T10:02:15;4.70;99.90
16966;DHT22;8599;47.852;12.070;2023-04-05T10:04:43;4.60;99.90
16966;DHT22;8599;47.852;12.070;2023-04-05T10:07:12;4.80;99.90
16966;DHT22;8599;47.852;12.070;2023-04-05T10:09:39;4.90;99.90
16966;DHT22;8599;47.852;12.070;2023-04-05T10:12:06;5.00;99.90
16966;DHT22;8599;47.852;12.070;2023-04-05T10:14:34;5.10;99.90
16966;DHT22;8599;47.852;12.070;2023-04-05T10:17:07;5.20;99.90
16966;DHT22;8599;47.852;12.070;2023-04-05T10:19:43;5.20;99.40
16966;DHT22;8599;47.852;12.070;2023-04-05T10:22:14;5.40;99.50
16966;DHT22;8599;47.852;12.070;2023-04-05T10:24:49;5.60;99.30
16966;DHT22;8599;47.852;12.070;2023-04-05T10:27:21;5.60;98.80
16966;DHT22;8599;47.852;12.070;2023-04-05T10:29:52;5.60;98.50
16966;DHT22;8599;47.852;12.070;2023-04-05T10:32:29;5.60;98.40
16966;DHT22;8599;47.852;12.070;2023-04-05T10:35:08;5.50;98.50
16966;DHT22;8599;47.852;12.070;2023-04-05T10:37:48;5.50;98.90
16966;DHT22;8599;47.852;12.070;2023-04-05T10:40:19;5.60;99.60
16966;DHT22;8599;47.852;12.070;2023-04-05T10:42:46;5.60;98.70
16966;DHT22;8599;47.852;12.070;2023-04-05T10:45:16;5.60;99.60
16966;DHT22;8599;47.852;12.070;2023-04-05T10:47:47;5.60;98.70
16966;DHT22;8599;47.852;12.070;2023-04-05T10:50:21;5.70;98.50
16966;DHT22;8599;47.852;12.070;2023-04-05T10:52:49;5.80;97.40
16966;DHT22;8599;47.852;12.070;2023-04-05T10:55:16;5.80;98.00
16966;DHT22;8599;47.852;12.070;2023-04-05T10:57:44;5.70;97.50
16966;DHT22;8599;47.852;12.070;2023-04-05T11:00:13;5.70;98.50
16966;DHT22;8599;47.852;12.070;2023-04-05T11:02:40;5.70;97.80
16966;DHT22;8599;47.852;12.070;2023-04-05T11:05:29;5.70;96.50
16966;DHT22;8599;47.852;12.070;2023-04-05T11:07:59;5.70;97.50
16966;DHT22;8599;47.852;12.070;2023-04-05T11:10:28;5.80;96.70
16966;DHT22;8599;47.852;12.070;2023-04-05T11:13:06;5.90;97.10
16966;DHT22;8599;47.852;12.070;2023-04-05T11:15:35;5.90;96.10
16966;DHT22;8599;47.852;12.070;2023-04-05T11:18:06;5.90;96.50
16966;DHT22;8599;47.852;12.070;2023-04-05T11:20:45;6.00;97.40
16966;DHT22;8599;47.852;12.070;2023-04-05T11:23:14;6.30;97.40
16966;DHT22;8599;47.852;12.070;2023-04-05T11:25:46;6.30;97.10
16966;DHT22;8599;47.852;12.070;2023-04-05T11:28:33;6.40;97.10
16966;DHT22;8599;47.852;12.070;2023-04-05T11:31:12;6.50;96.50
16966;DHT22;8599;47.852;12.070;2023-04-05T11:33:54;6.40;96.80
16966;DHT22;8599;47.852;12.070;2023-04-05T11:36:36;6.50;95.30
16966;DHT22;8599;47.852;12.070;2023-04-05T11:39:25;6.40;95.20
16966;DHT22;8599;47.852;12.070;2023-04-05T11:41:54;6.80;95.60
16966;DHT22;8599;47.852;12.070;2023-04-05T11:44:22;6.90;94.80
16966;DHT22;8599;47.852;12.070;2023-04-05T11:46:49;7.00;95.60
16966;DHT22;8599;47.852;12.070;2023-04-05T11:49:16;7.10;95.40
16966;DHT22;8599;47.852;12.070;2023-04-05T11:51:44;7.30;95.40
16966;DHT22;8599;47.852;12.070;2023-04-05T11:54:13;7.30;95.20
16966;DHT22;8599;47.852;12.070;2023-04-05T11:56:40;7.40;95.00
16966;DHT22;8599;47.852;12.070;2023-04-05T11:59:12;7.50;94.60
16966;DHT22;8599;47.852;12.070;2023-04-05T12:01:43;7.50;94.00
16966;DHT22;8599;47.852;12.070;2023-04-05T12:04:13;7.10;94.20
16966;DHT22;8599;47.852;12.070;2023-04-05T12:06:40;7.10;94.40
16966;DHT22;8599;47.852;12.070;2023-04-05T12:09:08;7.40;93.70
16966;DHT22;8599;47.852;12.070;2023-04-05T12:11:34;7.50;94.20
16966;DHT22;8599;47.852;12.070;2023-04-05T12:14:05;7.70;93.60
16966;DHT22;8599;47.852;12.070;2023-04-05T12:16:32;7.90;92.70
16966;DHT22;8599;47.852;12.070;2023-04-05T12:18:59;8.00;93.40
16966;DHT22;8599;47.852;12.070;2023-04-05T12:21:26;7.50;92.20
16966;DHT22;8599;47.852;12.070;2023-04-05T12:23:54;7.90;92.70
16966;DHT22;8599;47.852;12.070;2023-04-05T12:26:23;8.10;92.10
16966;DHT22;8599;47.852;12.070;2023-04-05T12:28:51;8.40;92.70
16966;DHT22;8599;47.852;12.070;2023-04-05T12:31:33;8.70;91.40
16966;DHT22;8599;47.852;12.070;2023-04-05T12:34:00;8.90;90.90
16966;DHT22;8599;47.852;12.070;2023-04-05T12:36:27;8.80;90.90
16966;DHT22;8599;47.852;12.070;2023-04-05T12:38:55;8.50;91.10
16966;DHT22;8599;47.852;12.070;2023-04-05T12:41:27;8.40;91.00
16966;DHT22;8599;47.852;12.070;2023-04-05T12:43:54;8.60;91.90
16966;DHT22;8599;47.852;12.070;2023-04-05T12:46:38;8.70;91.30
16966;DHT22;8599;47.852;12.070;2023-04-05T12:49:06;8.80;89.50
16966;DHT22;8599;47.852;12.070;2023-04-05T12:51:36;8.70;89.50
16966;DHT22;8599;47.852;12.070;2023-04-05T12:54:11;8.70;89.70
16966;DHT22;8599;47.852;12.070;2023-04-05T12:56:39;8.90;90.00
16966;DHT22;8599;47.852;12.070;2023-04-05T12:59:06;9.00;90.10
16966;DHT22;8599;47.852;12.070;2023-04-05T13:01:33;9.10;88.20
16966;DHT22;8599;47.852;12.070;2023-04-05T13:04:00;9.20;87.90
16966;DHT22;8599;47.852;12.070;2023-04-05T13:06:29;9.20;88.60
16966;DHT22;8599;47.852;12.070;2023-04-05T13:08:56;9.40;87.60
16966;DHT22;8599;47.852;12.070;2023-04-05T13:11:23;9.50;86.30
16966;DHT22;8599;47.852;12.070;2023-04-05T13:13:51;9.90;87.40
16966;DHT22;8599;47.852;12.070;2023-04-05T13:16:18;9.80;83.70
16966;DHT22;8599;47.852;12.070;2023-04-05T13:18:45;9.60;86.50
16966;DHT22;8599;47.852;12.070;2023-04-05T13:21:12;9.90;85.50
16966;DHT22;8599;47.852;12.070;2023-04-05T13:23:39;9.80;84.20
16966;DHT22;8599;47.852;12.070;2023-04-05T13:26:06;9.50;83.80
16966;DHT22;8599;47.852;12.070;2023-04-05T13:28:33;9.70;86.20
16966;DHT22;8599;47.852;12.070;2023-04-05T13:31:03;9.90;85.80
16966;DHT22;8599;47.852;12.070;2023-04-05T13:33:30;9.90;83.50
16966;DHT22;8599;47.852;12.070;2023-04-05T13:35:58;10.10;83.10
16966;DHT22;8599;47.852;12.070;2023-04-05T13:38:25;9.50;83.20
16966;DHT22;8599;47.852;12.070;2023-04-05T13:40:52;9.50;84.80
16966;DHT22;8599;47.852;12.070;2023-04-05T13:43:18;9.60;85.00
16966;DHT22;8599;47.852;12.070;2023-04-05T13:45:45;9.90;82.80
16966;DHT22;8599;47.852;12.070;2023-04-05T13:48:13;9.70;82.10
16966;DHT22;8599;47.852;12.070;2023-04-05T13:50:40;9.60;82.50
16966;DHT22;8599;47.852;12.070;2023-04-05T13:53:07;9.90;83.60
16966;DHT22;8599;47.852;12.070;2023-04-05T13:55:34;10.30;82.50
16966;DHT22;8599;47.852;12.070;2023-04-05T13:58:01;10.60;81.50
16966;DHT22;8599;47.852;12.070;2023-04-05T14:00:28;10.80;81.60
16966;DHT22;8599;47.852;12.070;2023-04-05T14:02:55;10.60;80.00
16966;DHT22;8599;47.852;12.070;2023-04-05T14:05:23;10.20;79.70
16966;DHT22;8599;47.852;12.070;2023-04-05T14:07:50;10.30;81.40
16966;DHT22;8599;47.852;12.070;2023-04-05T14:10:17;10.50;79.60
16966;DHT22;8599;47.852;12.070;2023-04-05T14:12:45;10.90;79.00
16966;DHT22;8599;47.852;12.070;2023-04-05T14:15:12;10.60;81.30
16966;DHT22;8599;47.852;12.070;2023-04-05T14:17:39;10.70;81.70
16966;DHT22;8599;47.852;12.070;2023-04-05T14:20:07;10.80;79.80
16966;DHT22;8599;47.852;12.070;2023-04-05T14:22:35;10.50;79.40
16966;DHT22;8599;47.852;12.070;2023-04-05T14:25:02;10.60;79.90
16966;DHT22;8599;47.852;12.070;2023-04-05T14:27:32;10.90;79.50
16966;DHT22;8599;47.852;12.070;2023-04-05T14:30:02;10.40;80.00
16966;DHT22;8599;47.852;12.070;2023-04-05T14:32:29;10.20;81.00
16966;DHT22;8599;47.852;12.070;2023-04-05T14:34:56;10.60;79.50
16966;DHT22;8599;47.852;12.070;2023-04-05T14:37:22;11.30;78.60
16966;DHT22;8599;47.852;12.070;2023-04-05T14:39:51;11.30;76.80
16966;DHT22;8599;47.852;12.070;2023-04-05T14:42:18;11.30;77.60
16966;DHT22;8599;47.852;12.070;2023-04-05T14:44:46;11.60;77.40
16966;DHT22;8599;47.852;12.070;2023-04-05T14:47:12;11.50;77.90
16966;DHT22;8599;47.852;12.070;2023-04-05T14:49:39;12.20;75.80
16966;DHT22;8599;47.852;12.070;2023-04-05T14:52:06;11.70;75.80
16966;DHT22;8599;47.852;12.070;2023-04-05T14:54:33;11.50;75.70
16966;DHT22;8599;47.852;12.070;2023-04-05T14:57:02;11.10;76.70
16966;DHT22;8599;47.852;12.070;2023-04-05T14:59:28;11.20;76.20
16966;DHT22;8599;47.852;12.070;2023-04-05T15:01:56;11.70;76.10
16966;DHT22;8599;47.852;12.070;2023-04-05T15:04:23;12.70;74.00
16966;DHT22;8599;47.852;12.070;2023-04-05T15:06:50;13.60;71.80
16966;DHT22;8599;47.852;12.070;2023-04-05T15:09:16;13.90;71.40
16966;DHT22;8599;47.852;12.070;2023-04-05T15:11:43;13.70;68.50
16966;DHT22;8599;47.852;12.070;2023-04-05T15:14:12;13.00;68.90
16966;DHT22;8599;47.852;12.070;2023-04-05T15:16:38;12.80;71.80
16966;DHT22;8599;47.852;12.070;2023-04-05T15:19:05;12.20;72.30
16966;DHT22;8599;47.852;12.070;2023-04-05T15:21:32;12.20;73.60
16966;DHT22;8599;47.852;12.070;2023-04-05T15:23:59;12.20;72.30
16966;DHT22;8599;47.852;12.070;2023-04-05T15:26:27;11.50;72.30
16966;DHT22;8599;47.852;12.070;2023-04-05T15:28:54;10.60;74.80
16966;DHT22;8599;47.852;12.070;2023-04-05T15:31:22;10.10;77.80
16966;DHT22;8599;47.852;12.070;2023-04-05T15:33:49;10.20;77.70
16966;DHT22;8599;47.852;12.070;2023-04-05T15:36:16;10.60;77.20
16966;DHT22;8599;47.852;12.070;2023-04-05T15:38:43;10.70;76.40
16966;DHT22;8599;47.852;12.070;2023-04-05T15:41:09;11.10;77.10
16966;DHT22;8599;47.852;12.070;2023-04-05T15:43:37;11.00;76.30
16966;DHT22;8599;47.852;12.070;2023-04-05T15:46:04;11.00;76.80
16966;DHT22;8599;47.852;12.070;2023-04-05T15:48:32;11.30;75.50
16966;DHT22;8599;47.852;12.070;2023-04-05T15:50:59;11.10;74.90
16966;DHT22;8599;47.852;12.070;2023-04-05T15:53:26;11.20;75.30